sensor_id;sensor_type;location;lat;lon;timestamp;P1;durP1;ratioP1;P2;durP2;ratioP2
24411;SDS011;12544;46.760;15.942;2023-02-05T00:00:34;0.70;;;0.70;;
24411;SDS011;12544;46.760;15.942;2023-02-05T00:03:00;0.50;;;0.50;;
24411;SDS011;12544;46.760;15.942;2023-02-05T00:05:25;0.70;;;0.70;;
24411;SDS011;12544;46.760;15.942;2023-02-05T00:07:53;2.08;;;0.70;;
24411;SDS011;12544;46.760;15.942;2023-02-05T00:10:18;1.27;;;0.80;;
24411;SDS011;12544;46.760;15.942;2023-02-05T00:12:44;1.38;;;1.02;;
24411;SDS011;12544;46.760;15.942;2023-02-05T00:15:10;1.15;;;0.80;;
24411;SDS011;12544;46.760;15.942;2023-02-05T00:17:43;1.00;;;0.90;;
24411;SDS011;12544;46.760;15.942;2023-02-05T00:22:34;0.73;;;0.63;;
24411;SDS011;12544;46.760;15.942;2023-02-05T00:25:00;0.80;;;0.75;;
24411;SDS011;12544;46.760;15.942;2023-02-05T00:27:25;0.70;;;0.70;;
24411;SDS011;12544;46.760;15.942;2023-02-05T00:29:51;0.60;;;0.55;;
24411;SDS011;12544;46.760;15.942;2023-02-05T00:34:47;2.38;;;0.70;;
24411;SDS011;12544;46.760;15.942;2023-02-05T00:37:13;1.85;;;0.70;;
24411;SDS011;12544;46.760;15.942;2023-02-05T00:39:47;2.15;;;0.55;;
24411;SDS011;12544;46.760;15.942;2023-02-05T00:42:13;0.50;;;0.50;;
24411;SDS011;12544;46.760;15.942;2023-02-05T00:44:39;0.68;;;0.57;;
24411;SDS011;12544;46.760;15.942;2023-02-05T00:47:04;0.90;;;0.85;;
24411;SDS011;12544;46.760;15.942;2023-02-05T00:49:30;1.58;;;0.70;;
24411;SDS011;12544;46.760;15.942;2023-02-05T00:51:55;1.17;;;0.88;;
24411;SDS011;12544;46.760;15.942;2023-02-05T00:54:21;3.60;;;1.13;;
24411;SDS011;12544;46.760;15.942;2023-02-05T00:56:47;3.13;;;1.35;;
24411;SDS011;12544;46.760;15.942;2023-02-05T01:01:42;2.33;;;1.83;;
24411;SDS011;12544;46.760;15.942;2023-02-05T01:04:07;2.40;;;1.90;;
24411;SDS011;12544;46.760;15.942;2023-02-05T01:06:33;2.83;;;2.22;;
24411;SDS011;12544;46.760;15.942;2023-02-05T01:08:59;4.00;;;2.55;;
24411;SDS011;12544;46.760;15.942;2023-02-05T01:11:24;3.70;;;2.25;;
24411;SDS011;12544;46.760;15.942;2023-02-05T01:16:53;3.78;;;2.20;;
24411;SDS011;12544;46.760;15.942;2023-02-05T01:19:18;3.17;;;2.05;;
24411;SDS011;12544;46.760;15.942;2023-02-05T01:21:44;2.97;;;2.13;;
24411;SDS011;12544;46.760;15.942;2023-02-05T01:24:10;3.00;;;1.90;;
24411;SDS011;12544;46.760;15.942;2023-02-05T01:26:35;2.70;;;2.05;;
24411;SDS011;12544;46.760;15.942;2023-02-05T01:29:09;11.57;;;2.50;;
24411;SDS011;12544;46.760;15.942;2023-02-05T01:31:34;3.05;;;2.10;;
24411;SDS011;12544;46.760;15.942;2023-02-05T01:34:00;3.97;;;2.10;;
24411;SDS011;12544;46.760;15.942;2023-02-05T01:36:26;2.95;;;1.92;;
24411;SDS011;12544;46.760;15.942;2023-02-05T01:38:51;2.92;;;1.80;;
24411;SDS011;12544;46.760;15.942;2023-02-05T01:41:18;5.47;;;2.35;;
24411;SDS011;12544;46.760;15.942;2023-02-05T01:46:34;3.05;;;2.10;;
24411;SDS011;12544;46.760;15.942;2023-02-05T01:49:01;3.75;;;2.08;;
24411;SDS011;12544;46.760;15.942;2023-02-05T01:51:29;2.97;;;2.08;;
24411;SDS011;12544;46.760;15.942;2023-02-05T01:53:57;3.40;;;2.08;;
24411;SDS011;12544;46.760;15.942;2023-02-05T01:56:25;2.85;;;2.20;;
24411;SDS011;12544;46.760;15.942;2023-02-05T01:59:01;2.80;;;1.95;;
24411;SDS011;12544;46.760;15.942;2023-02-05T02:01:31;3.08;;;1.70;;
24411;SDS011;12544;46.760;15.942;2023-02-05T02:03:57;2.28;;;1.45;;
24411;SDS011;12544;46.760;15.942;2023-02-05T02:06:24;0.90;;;0.90;;
24411;SDS011;12544;46.760;15.942;2023-02-05T02:08:50;0.80;;;0.80;;
24411;SDS011;12544;46.760;15.942;2023-02-05T02:11:16;1.15;;;0.90;;
24411;SDS011;12544;46.760;15.942;2023-02-05T02:13:45;2.95;;;1.05;;
24411;SDS011;12544;46.760;15.942;2023-02-05T02:16:14;1.05;;;0.70;;
24411;SDS011;12544;46.760;15.942;2023-02-05T02:18:40;0.70;;;0.68;;
24411;SDS011;12544;46.760;15.942;2023-02-05T02:21:12;0.90;;;0.77;;
24411;SDS011;12544;46.760;15.942;2023-02-05T02:23:59;1.80;;;1.10;;
24411;SDS011;12544;46.760;15.942;2023-02-05T02:26:39;0.88;;;0.85;;
24411;SDS011;12544;46.760;15.942;2023-02-05T02:29:24;1.20;;;0.90;;
24411;SDS011;12544;46.760;15.942;2023-02-05T02:32:08;4.17;;;3.77;;
24411;SDS011;12544;46.760;15.942;2023-02-05T02:34:38;1.45;;;1.00;;
24411;SDS011;12544;46.760;15.942;2023-02-05T02:37:21;2.05;;;1.00;;
24411;SDS011;12544;46.760;15.942;2023-02-05T02:40:02;1.13;;;0.82;;
24411;SDS011;12544;46.760;15.942;2023-02-05T02:42:43;1.50;;;0.90;;
24411;SDS011;12544;46.760;15.942;2023-02-05T02:45:30;2.10;;;1.02;;
24411;SDS011;12544;46.760;15.942;2023-02-05T02:47:59;3.42;;;1.10;;
24411;SDS011;12544;46.760;15.942;2023-02-05T02:50:35;1.80;;;0.80;;
24411;SDS011;12544;46.760;15.942;2023-02-05T02:53:13;2.05;;;1.00;;
24411;SDS011;12544;46.760;15.942;2023-02-05T02:55:42;1.25;;;0.85;;
24411;SDS011;12544;46.760;15.942;2023-02-05T02:58:17;3.03;;;0.98;;
24411;SDS011;12544;46.760;15.942;2023-02-05T03:00:47;1.23;;;0.90;;
24411;SDS011;12544;46.760;15.942;2023-02-05T03:03:14;1.67;;;0.80;;
24411;SDS011;12544;46.760;15.942;2023-02-05T03:05:43;4.40;;;1.00;;
24411;SDS011;12544;46.760;15.942;2023-02-05T03:08:20;1.77;;;0.90;;
24411;SDS011;12544;46.760;15.942;2023-02-05T03:11:12;2.20;;;1.08;;
24411;SDS011;12544;46.760;15.942;2023-02-05T03:13:39;1.20;;;1.08;;
24411;SDS011;12544;46.760;15.942;2023-02-05T03:16:06;1.88;;;0.98;;
24411;SDS011;12544;46.760;15.942;2023-02-05T03:18:32;1.52;;;0.88;;
24411;SDS011;12544;46.760;15.942;2023-02-05T03:21:05;3.75;;;1.02;;
24411;SDS011;12544;46.760;15.942;2023-02-05T03:23:36;1.95;;;1.50;;
24411;SDS011;12544;46.760;15.942;2023-02-05T03:26:02;1.38;;;1.17;;
24411;SDS011;12544;46.760;15.942;2023-02-05T03:31:15;3.67;;;3.47;;
24411;SDS011;12544;46.760;15.942;2023-02-05T03:33:51;1.45;;;1.08;;
24411;SDS011;12544;46.760;15.942;2023-02-05T03:42:27;1.23;;;0.88;;
24411;SDS011;12544;46.760;15.942;2023-02-05T03:52:58;1.70;;;1.10;;
24411;SDS011;12544;46.760;15.942;2023-02-05T03:55:40;1.73;;;1.17;;
24411;SDS011;12544;46.760;15.942;2023-02-05T04:01:06;1.48;;;1.10;;
24411;SDS011;12544;46.760;15.942;2023-02-05T04:03:33;1.55;;;1.10;;
24411;SDS011;12544;46.760;15.942;2023-02-05T04:05:58;1.58;;;1.05;;
24411;SDS011;12544;46.760;15.942;2023-02-05T04:08:24;3.10;;;1.30;;
24411;SDS011;12544;46.760;15.942;2023-02-05T04:10:49;2.10;;;1.10;;
24411;SDS011;12544;46.760;15.942;2023-02-05T04:13:15;1.75;;;1.50;;
24411;SDS011;12544;46.760;15.942;2023-02-05T04:15:41;1.95;;;1.10;;
24411;SDS011;12544;46.760;15.942;2023-02-05T04:18:06;1.42;;;0.93;;
24411;SDS011;12544;46.760;15.942;2023-02-05T04:20:32;2.75;;;1.10;;
24411;SDS011;12544;46.760;15.942;2023-02-05T04:22:58;2.30;;;1.02;;
24411;SDS011;12544;46.760;15.942;2023-02-05T04:25:24;1.70;;;1.20;;
24411;SDS011;12544;46.760;15.942;2023-02-05T04:27:49;1.42;;;1.00;;
24411;SDS011;12544;46.760;15.942;2023-02-05T04:30:15;1.45;;;0.98;;
24411;SDS011;12544;46.760;15.942;2023-02-05T04:32:41;1.08;;;0.90;;
24411;SDS011;12544;46.760;15.942;2023-02-05T04:35:07;3.05;;;1.35;;
24411;SDS011;12544;46.760;15.942;2023-02-05T04:37:32;2.40;;;1.20;;
24411;SDS011;12544;46.760;15.942;2023-02-05T04:39:58;1.25;;;1.00;;
24411;SDS011;12544;46.760;15.942;2023-02-05T04:42:23;2.17;;;1.33;;
24411;SDS011;12544;46.760;15.942;2023-02-05T04:44:49;1.10;;;1.00;;
24411;SDS011;12544;46.760;15.942;2023-02-05T04:47:16;3.83;;;1.20;;
24411;SDS011;12544;46.760;15.942;2023-02-05T04:49:42;2.15;;;1.33;;
24411;SDS011;12544;46.760;15.942;2023-02-05T04:52:08;1.13;;;0.80;;
24411;SDS011;12544;46.760;15.942;2023-02-05T04:54:35;2.67;;;1.23;;
24411;SDS011;12544;46.760;15.942;2023-02-05T05:02:20;2.10;;;1.08;;
24411;SDS011;12544;46.760;15.942;2023-02-05T05:05:01;1.20;;;1.00;;
24411;SDS011;12544;46.760;15.942;2023-02-05T05:07:28;1.98;;;1.00;;
24411;SDS011;12544;46.760;15.942;2023-02-05T05:09:55;1.60;;;1.20;;
24411;SDS011;12544;46.760;15.942;2023-02-05T05:12:20;0.95;;;0.90;;
24411;SDS011;12544;46.760;15.942;2023-02-05T05:14:46;0.80;;;0.80;;
24411;SDS011;12544;46.760;15.942;2023-02-05T05:17:11;0.98;;;0.80;;
24411;SDS011;12544;46.760;15.942;2023-02-05T05:19:38;1.58;;;0.90;;
24411;SDS011;12544;46.760;15.942;2023-02-05T05:22:04;1.17;;;1.00;;
24411;SDS011;12544;46.760;15.942;2023-02-05T05:24:30;1.42;;;0.90;;
24411;SDS011;12544;46.760;15.942;2023-02-05T05:26:55;2.00;;;0.93;;
24411;SDS011;12544;46.760;15.942;2023-02-05T05:29:21;4.05;;;0.88;;
24411;SDS011;12544;46.760;15.942;2023-02-05T05:31:47;1.70;;;0.80;;
24411;SDS011;12544;46.760;15.942;2023-02-05T05:34:15;1.08;;;0.70;;
24411;SDS011;12544;46.760;15.942;2023-02-05T05:36:40;1.23;;;0.82;;
24411;SDS011;12544;46.760;15.942;2023-02-05T05:39:07;2.58;;;0.90;;
24411;SDS011;12544;46.760;15.942;2023-02-05T05:41:52;1.50;;;0.98;;
24411;SDS011;12544;46.760;15.942;2023-02-05T05:44:36;1.70;;;0.90;;
24411;SDS011;12544;46.760;15.942;2023-02-05T05:47:01;2.22;;;0.80;;
24411;SDS011;12544;46.760;15.942;2023-02-05T05:49:27;1.35;;;0.90;;
24411;SDS011;12544;46.760;15.942;2023-02-05T05:51:53;1.30;;;0.82;;
24411;SDS011;12544;46.760;15.942;2023-02-05T05:54:18;1.85;;;1.02;;
24411;SDS011;12544;46.760;15.942;2023-02-05T05:56:44;1.88;;;1.05;;
24411;SDS011;12544;46.760;15.942;2023-02-05T05:59:10;7.35;;;0.90;;
24411;SDS011;12544;46.760;15.942;2023-02-05T06:01:36;2.65;;;1.00;;
24411;SDS011;12544;46.760;15.942;2023-02-05T06:04:02;1.67;;;1.00;;
24411;SDS011;12544;46.760;15.942;2023-02-05T06:06:28;1.55;;;0.90;;
24411;SDS011;12544;46.760;15.942;2023-02-05T06:08:53;1.15;;;0.70;;
24411;SDS011;12544;46.760;15.942;2023-02-05T06:11:19;2.30;;;0.98;;
24411;SDS011;12544;46.760;15.942;2023-02-05T06:13:44;1.75;;;0.88;;
24411;SDS011;12544;46.760;15.942;2023-02-05T06:16:10;1.85;;;1.08;;
24411;SDS011;12544;46.760;15.942;2023-02-05T06:18:36;1.00;;;0.68;;
24411;SDS011;12544;46.760;15.942;2023-02-05T06:21:01;1.60;;;1.08;;
24411;SDS011;12544;46.760;15.942;2023-02-05T06:23:29;2.33;;;1.00;;
24411;SDS011;12544;46.760;15.942;2023-02-05T06:25:55;1.70;;;1.17;;
24411;SDS011;12544;46.760;15.942;2023-02-05T06:28:21;1.00;;;0.90;;
24411;SDS011;12544;46.760;15.942;2023-02-05T06:30:47;2.95;;;0.93;;
24411;SDS011;12544;46.760;15.942;2023-02-05T06:33:12;1.17;;;0.85;;
24411;SDS011;12544;46.760;15.942;2023-02-05T06:35:39;2.35;;;0.90;;
24411;SDS011;12544;46.760;15.942;2023-02-05T06:38:13;2.55;;;1.35;;
24411;SDS011;12544;46.760;15.942;2023-02-05T06:40:39;1.17;;;0.70;;
24411;SDS011;12544;46.760;15.942;2023-02-05T06:43:05;2.15;;;1.08;;
24411;SDS011;12544;46.760;15.942;2023-02-05T06:45:30;1.85;;;1.20;;
24411;SDS011;12544;46.760;15.942;2023-02-05T06:47:56;2.53;;;1.30;;
24411;SDS011;12544;46.760;15.942;2023-02-05T06:50:22;1.70;;;1.30;;
24411;SDS011;12544;46.760;15.942;2023-02-05T06:52:48;1.23;;;0.82;;
24411;SDS011;12544;46.760;15.942;2023-02-05T06:55:15;1.23;;;0.80;;
24411;SDS011;12544;46.760;15.942;2023-02-05T06:57:41;1.63;;;1.00;;
24411;SDS011;12544;46.760;15.942;2023-02-05T07:00:07;2.50;;;1.13;;
24411;SDS011;12544;46.760;15.942;2023-02-05T07:02:34;2.50;;;1.13;;
24411;SDS011;12544;46.760;15.942;2023-02-05T07:04:59;3.13;;;1.13;;
24411;SDS011;12544;46.760;15.942;2023-02-05T07:07:25;1.13;;;0.90;;
24411;SDS011;12544;46.760;15.942;2023-02-05T07:09:52;1.70;;;1.20;;
24411;SDS011;12544;46.760;15.942;2023-02-05T07:12:18;2.30;;;1.02;;
24411;SDS011;12544;46.760;15.942;2023-02-05T07:14:44;2.22;;;1.00;;
24411;SDS011;12544;46.760;15.942;2023-02-05T07:17:10;3.38;;;1.02;;
24411;SDS011;12544;46.760;15.942;2023-02-05T07:19:36;1.85;;;1.00;;
24411;SDS011;12544;46.760;15.942;2023-02-05T07:22:02;0.93;;;0.80;;
24411;SDS011;12544;46.760;15.942;2023-02-05T07:24:28;2.35;;;1.50;;
24411;SDS011;12544;46.760;15.942;2023-02-05T07:26:54;5.32;;;3.63;;
24411;SDS011;12544;46.760;15.942;2023-02-05T07:29:28;1.65;;;0.95;;
24411;SDS011;12544;46.760;15.942;2023-02-05T07:31:54;3.33;;;1.52;;
24411;SDS011;12544;46.760;15.942;2023-02-05T07:34:20;2.83;;;1.50;;
24411;SDS011;12544;46.760;15.942;2023-02-05T07:36:48;2.10;;;1.02;;
24411;SDS011;12544;46.760;15.942;2023-02-05T07:39:15;2.45;;;1.60;;
24411;SDS011;12544;46.760;15.942;2023-02-05T07:41:40;2.35;;;1.45;;
24411;SDS011;12544;46.760;15.942;2023-02-05T07:44:06;1.23;;;0.80;;
24411;SDS011;12544;46.760;15.942;2023-02-05T07:46:31;2.67;;;1.38;;
24411;SDS011;12544;46.760;15.942;2023-02-05T07:48:57;1.67;;;0.93;;
24411;SDS011;12544;46.760;15.942;2023-02-05T07:51:23;1.40;;;1.30;;
24411;SDS011;12544;46.760;15.942;2023-02-05T07:53:49;2.05;;;1.30;;
24411;SDS011;12544;46.760;15.942;2023-02-05T07:56:29;1.73;;;1.00;;
24411;SDS011;12544;46.760;15.942;2023-02-05T07:58:55;1.30;;;0.90;;
24411;SDS011;12544;46.760;15.942;2023-02-05T08:01:20;2.13;;;1.92;;
24411;SDS011;12544;46.760;15.942;2023-02-05T08:03:46;1.25;;;0.77;;
24411;SDS011;12544;46.760;15.942;2023-02-05T08:06:12;2.47;;;1.38;;
24411;SDS011;12544;46.760;15.942;2023-02-05T08:12:00;1.55;;;0.98;;
24411;SDS011;12544;46.760;15.942;2023-02-05T08:14:26;1.25;;;0.60;;
24411;SDS011;12544;46.760;15.942;2023-02-05T08:16:52;1.17;;;0.73;;
24411;SDS011;12544;46.760;15.942;2023-02-05T08:19:17;1.05;;;0.60;;
24411;SDS011;12544;46.760;15.942;2023-02-05T08:21:43;1.35;;;0.65;;
24411;SDS011;12544;46.760;15.942;2023-02-05T08:24:09;1.08;;;0.65;;
24411;SDS011;12544;46.760;15.942;2023-02-05T08:26:35;1.17;;;0.70;;
24411;SDS011;12544;46.760;15.942;2023-02-05T08:29:01;1.83;;;1.00;;
24411;SDS011;12544;46.760;15.942;2023-02-05T08:31:27;3.83;;;0.70;;
24411;SDS011;12544;46.760;15.942;2023-02-05T08:33:52;1.10;;;0.88;;
24411;SDS011;12544;46.760;15.942;2023-02-05T08:36:20;2.10;;;0.93;;
24411;SDS011;12544;46.760;15.942;2023-02-05T08:38:46;0.68;;;0.65;;
24411;SDS011;12544;46.760;15.942;2023-02-05T08:41:12;1.95;;;0.90;;
24411;SDS011;12544;46.760;15.942;2023-02-05T08:43:41;2.35;;;1.00;;
24411;SDS011;12544;46.760;15.942;2023-02-05T08:46:12;1.98;;;0.85;;
24411;SDS011;12544;46.760;15.942;2023-02-05T08:48:40;1.35;;;0.70;;
24411;SDS011;12544;46.760;15.942;2023-02-05T08:51:08;2.55;;;0.60;;
24411;SDS011;12544;46.760;15.942;2023-02-05T08:53:34;1.20;;;0.82;;
24411;SDS011;12544;46.760;15.942;2023-02-05T08:56:01;1.38;;;0.82;;
24411;SDS011;12544;46.760;15.942;2023-02-05T08:58:28;0.75;;;0.60;;
24411;SDS011;12544;46.760;15.942;2023-02-05T09:01:04;1.70;;;0.68;;
24411;SDS011;12544;46.760;15.942;2023-02-05T09:03:31;2.47;;;0.73;;
24411;SDS011;12544;46.760;15.942;2023-02-05T09:05:57;1.45;;;0.68;;
24411;SDS011;12544;46.760;15.942;2023-02-05T09:08:24;0.50;;;0.50;;
24411;SDS011;12544;46.760;15.942;2023-02-05T09:10:51;0.82;;;0.73;;
24411;SDS011;12544;46.760;15.942;2023-02-05T09:13:16;0.93;;;0.70;;
24411;SDS011;12544;46.760;15.942;2023-02-05T09:15:44;0.80;;;0.60;;
24411;SDS011;12544;46.760;15.942;2023-02-05T09:18:10;0.70;;;0.68;;
24411;SDS011;12544;46.760;15.942;2023-02-05T09:20:43;0.95;;;0.60;;
24411;SDS011;12544;46.760;15.942;2023-02-05T09:23:11;0.55;;;0.52;;
24411;SDS011;12544;46.760;15.942;2023-02-05T09:25:38;1.45;;;0.65;;
24411;SDS011;12544;46.760;15.942;2023-02-05T09:28:05;1.65;;;0.70;;
24411;SDS011;12544;46.760;15.942;2023-02-05T09:30:34;1.45;;;0.60;;
24411;SDS011;12544;46.760;15.942;2023-02-05T09:33:00;1.23;;;0.75;;
24411;SDS011;12544;46.760;15.942;2023-02-05T09:35:26;0.93;;;0.60;;
24411;SDS011;12544;46.760;15.942;2023-02-05T09:37:52;0.85;;;0.60;;
24411;SDS011;12544;46.760;15.942;2023-02-05T09:40:26;2.13;;;0.70;;
24411;SDS011;12544;46.760;15.942;2023-02-05T09:50:58;1.77;;;0.60;;
24411;SDS011;12544;46.760;15.942;2023-02-05T09:53:24;0.75;;;0.60;;
24411;SDS011;12544;46.760;15.942;2023-02-05T09:58:47;0.95;;;0.60;;
24411;SDS011;12544;46.760;15.942;2023-02-05T10:04:01;0.75;;;0.65;;
24411;SDS011;12544;46.760;15.942;2023-02-05T10:17:54;0.85;;;0.60;;
24411;SDS011;12544;46.760;15.942;2023-02-05T10:26:07;0.63;;;0.60;;
24411;SDS011;12544;46.760;15.942;2023-02-05T10:34:20;0.82;;;0.60;;
24411;SDS011;12544;46.760;15.942;2023-02-05T10:40:16;0.68;;;0.68;;
24411;SDS011;12544;46.760;15.942;2023-02-05T10:42:56;0.90;;;0.65;;
24411;SDS011;12544;46.760;15.942;2023-02-05T10:45:34;0.65;;;0.65;;
24411;SDS011;12544;46.760;15.942;2023-02-05T10:53:28;0.93;;;0.70;;
24411;SDS011;12544;46.760;15.942;2023-02-05T10:55:55;0.90;;;0.75;;
24411;SDS011;12544;46.760;15.942;2023-02-05T11:01:01;1.48;;;0.80;;
24411;SDS011;12544;46.760;15.942;2023-02-05T11:03:27;0.90;;;0.70;;
24411;SDS011;12544;46.760;15.942;2023-02-05T11:05:53;1.23;;;0.60;;
24411;SDS011;12544;46.760;15.942;2023-02-05T11:08:32;0.93;;;0.80;;
24411;SDS011;12544;46.760;15.942;2023-02-05T11:11:06;1.25;;;0.70;;
24411;SDS011;12544;46.760;15.942;2023-02-05T11:13:46;0.60;;;0.60;;
24411;SDS011;12544;46.760;15.942;2023-02-05T11:16:17;0.73;;;0.60;;
24411;SDS011;12544;46.760;15.942;2023-02-05T11:18:44;1.55;;;0.80;;
24411;SDS011;12544;46.760;15.942;2023-02-05T11:21:18;2.15;;;0.80;;
24411;SDS011;12544;46.760;15.942;2023-02-05T11:23:53;0.70;;;0.70;;
24411;SDS011;12544;46.760;15.942;2023-02-05T11:26:21;0.95;;;0.80;;
24411;SDS011;12544;46.760;15.942;2023-02-05T11:28:48;0.75;;;0.65;;
24411;SDS011;12544;46.760;15.942;2023-02-05T11:33:50;1.15;;;0.90;;
24411;SDS011;12544;46.760;15.942;2023-02-05T11:36:33;1.45;;;0.82;;
24411;SDS011;12544;46.760;15.942;2023-02-05T11:42:06;1.13;;;0.80;;
24411;SDS011;12544;46.760;15.942;2023-02-05T11:44:35;1.42;;;0.88;;
24411;SDS011;12544;46.760;15.942;2023-02-05T11:47:10;0.98;;;0.60;;
24411;SDS011;12544;46.760;15.942;2023-02-05T11:49:37;0.80;;;0.80;;
24411;SDS011;12544;46.760;15.942;2023-02-05T11:52:08;0.60;;;0.60;;
24411;SDS011;12544;46.760;15.942;2023-02-05T11:54:36;2.30;;;0.80;;
24411;SDS011;12544;46.760;15.942;2023-02-05T12:02:35;0.88;;;0.77;;
24411;SDS011;12544;46.760;15.942;2023-02-05T12:10:36;1.35;;;0.70;;
24411;SDS011;12544;46.760;15.942;2023-02-05T12:18:45;1.90;;;0.77;;
24411;SDS011;12544;46.760;15.942;2023-02-05T12:21:48;1.27;;;0.80;;
24411;SDS011;12544;46.760;15.942;2023-02-05T12:26:47;1.08;;;0.70;;
24411;SDS011;12544;46.760;15.942;2023-02-05T12:34:41;2.28;;;0.90;;
24411;SDS011;12544;46.760;15.942;2023-02-05T12:40:19;4.43;;;4.30;;
24411;SDS011;12544;46.760;15.942;2023-02-05T12:43:17;1.50;;;0.95;;
24411;SDS011;12544;46.760;15.942;2023-02-05T12:46:04;1.98;;;0.75;;
24411;SDS011;12544;46.760;15.942;2023-02-05T12:57:25;1.17;;;0.90;;
24411;SDS011;12544;46.760;15.942;2023-02-05T13:00:03;0.77;;;0.70;;
24411;SDS011;12544;46.760;15.942;2023-02-05T13:11:11;1.42;;;0.70;;
24411;SDS011;12544;46.760;15.942;2023-02-05T13:14:02;1.95;;;1.10;;
24411;SDS011;12544;46.760;15.942;2023-02-05T13:16:34;1.40;;;1.02;;
24411;SDS011;12544;46.760;15.942;2023-02-05T13:22:27;3.72;;;1.05;;
24411;SDS011;12544;46.760;15.942;2023-02-05T13:33:35;3.65;;;1.05;;
24411;SDS011;12544;46.760;15.942;2023-02-05T13:36:18;2.33;;;0.90;;
24411;SDS011;12544;46.760;15.942;2023-02-05T13:42:02;2.85;;;1.83;;
24411;SDS011;12544;46.760;15.942;2023-02-05T13:47:29;1.83;;;0.90;;
24411;SDS011;12544;46.760;15.942;2023-02-05T13:56:10;1.10;;;0.80;;
24411;SDS011;12544;46.760;15.942;2023-02-05T13:58:56;1.02;;;0.70;;
24411;SDS011;12544;46.760;15.942;2023-02-05T14:03:59;2.08;;;1.13;;
24411;SDS011;12544;46.760;15.942;2023-02-05T14:06:34;3.00;;;0.80;;
24411;SDS011;12544;46.760;15.942;2023-02-05T14:12:08;1.90;;;1.10;;
24411;SDS011;12544;46.760;15.942;2023-02-05T14:14:37;1.65;;;1.10;;
24411;SDS011;12544;46.760;15.942;2023-02-05T14:19:53;1.45;;;0.82;;
24411;SDS011;12544;46.760;15.942;2023-02-05T14:22:39;2.08;;;0.93;;
24411;SDS011;12544;46.760;15.942;2023-02-05T14:33:00;0.68;;;0.60;;
24411;SDS011;12544;46.760;15.942;2023-02-05T14:41:44;1.90;;;1.10;;
24411;SDS011;12544;46.760;15.942;2023-02-05T14:44:23;1.88;;;0.70;;
24411;SDS011;12544;46.760;15.942;2023-02-05T14:49:39;0.63;;;0.63;;
24411;SDS011;12544;46.760;15.942;2023-02-05T14:52:28;1.05;;;0.75;;
24411;SDS011;12544;46.760;15.942;2023-02-05T15:10:43;3.17;;;1.05;;
24411;SDS011;12544;46.760;15.942;2023-02-05T15:13:17;1.63;;;1.10;;
24411;SDS011;12544;46.760;15.942;2023-02-05T15:23:57;1.88;;;1.75;;
24411;SDS011;12544;46.760;15.942;2023-02-05T15:29:35;0.88;;;0.70;;
24411;SDS011;12544;46.760;15.942;2023-02-05T15:32:27;2.03;;;0.73;;
24411;SDS011;12544;46.760;15.942;2023-02-05T15:35:01;1.52;;;1.08;;
24411;SDS011;12544;46.760;15.942;2023-02-05T15:37:31;1.20;;;1.08;;
24411;SDS011;12544;46.760;15.942;2023-02-05T15:42:31;2.70;;;1.85;;
24411;SDS011;12544;46.760;15.942;2023-02-05T15:56:07;4.93;;;2.17;;
24411;SDS011;12544;46.760;15.942;2023-02-05T15:58:39;3.60;;;2.05;;
24411;SDS011;12544;46.760;15.942;2023-02-05T16:01:24;3.83;;;1.70;;
24411;SDS011;12544;46.760;15.942;2023-02-05T16:03:55;3.08;;;1.90;;
24411;SDS011;12544;46.760;15.942;2023-02-05T16:06:22;3.20;;;2.47;;
24411;SDS011;12544;46.760;15.942;2023-02-05T16:08:50;4.65;;;2.25;;
24411;SDS011;12544;46.760;15.942;2023-02-05T16:11:27;3.55;;;2.10;;
24411;SDS011;12544;46.760;15.942;2023-02-05T16:19:31;3.58;;;2.28;;
24411;SDS011;12544;46.760;15.942;2023-02-05T16:22:03;2.40;;;1.90;;
24411;SDS011;12544;46.760;15.942;2023-02-05T16:24:40;5.78;;;2.60;;
24411;SDS011;12544;46.760;15.942;2023-02-05T16:27:10;3.10;;;2.10;;
24411;SDS011;12544;46.760;15.942;2023-02-05T16:29:40;4.07;;;1.90;;
24411;SDS011;12544;46.760;15.942;2023-02-05T16:34:56;7.90;;;4.50;;
24411;SDS011;12544;46.760;15.942;2023-02-05T16:37:24;7.32;;;4.18;;
24411;SDS011;12544;46.760;15.942;2023-02-05T16:39:54;5.60;;;3.13;;
24411;SDS011;12544;46.760;15.942;2023-02-05T16:45:03;1.98;;;1.55;;
24411;SDS011;12544;46.760;15.942;2023-02-05T16:47:32;2.13;;;1.25;;
24411;SDS011;12544;46.760;15.942;2023-02-05T16:49:58;2.92;;;1.63;;
24411;SDS011;12544;46.760;15.942;2023-02-05T16:54:54;3.88;;;2.70;;
24411;SDS011;12544;46.760;15.942;2023-02-05T16:57:31;2.75;;;1.77;;
24411;SDS011;12544;46.760;15.942;2023-02-05T17:00:12;6.22;;;2.72;;
24411;SDS011;12544;46.760;15.942;2023-02-05T17:02:52;4.50;;;2.50;;
24411;SDS011;12544;46.760;15.942;2023-02-05T17:05:24;5.30;;;3.40;;
24411;SDS011;12544;46.760;15.942;2023-02-05T17:07:57;4.85;;;2.65;;
24411;SDS011;12544;46.760;15.942;2023-02-05T17:10:28;4.43;;;2.40;;
24411;SDS011;12544;46.760;15.942;2023-02-05T17:12:55;4.60;;;2.00;;
24411;SDS011;12544;46.760;15.942;2023-02-05T17:15:25;3.72;;;1.90;;
24411;SDS011;12544;46.760;15.942;2023-02-05T17:17:54;3.47;;;2.45;;
24411;SDS011;12544;46.760;15.942;2023-02-05T17:20:22;3.75;;;2.42;;
24411;SDS011;12544;46.760;15.942;2023-02-05T17:25:25;4.95;;;1.90;;
24411;SDS011;12544;46.760;15.942;2023-02-05T17:27:52;5.35;;;2.40;;
24411;SDS011;12544;46.760;15.942;2023-02-05T17:30:19;2.47;;;1.98;;
24411;SDS011;12544;46.760;15.942;2023-02-05T17:32:45;4.68;;;2.78;;
24411;SDS011;12544;46.760;15.942;2023-02-05T17:35:20;5.97;;;3.50;;
24411;SDS011;12544;46.760;15.942;2023-02-05T17:37:48;5.63;;;3.53;;
24411;SDS011;12544;46.760;15.942;2023-02-05T17:40:15;4.15;;;2.88;;
24411;SDS011;12544;46.760;15.942;2023-02-05T17:42:43;6.13;;;3.60;;
24411;SDS011;12544;46.760;15.942;2023-02-05T17:50:08;4.90;;;2.80;;
24411;SDS011;12544;46.760;15.942;2023-02-05T17:52:35;8.18;;;4.45;;
24411;SDS011;12544;46.760;15.942;2023-02-05T17:55:00;7.43;;;4.80;;
24411;SDS011;12544;46.760;15.942;2023-02-05T17:57:26;5.88;;;4.20;;
24411;SDS011;12544;46.760;15.942;2023-02-05T18:02:28;6.75;;;4.10;;
24411;SDS011;12544;46.760;15.942;2023-02-05T18:04:54;6.18;;;3.92;;
24411;SDS011;12544;46.760;15.942;2023-02-05T18:07:36;9.27;;;5.65;;
24411;SDS011;12544;46.760;15.942;2023-02-05T18:10:05;6.80;;;4.93;;
24411;SDS011;12544;46.760;15.942;2023-02-05T18:12:34;6.55;;;3.60;;
24411;SDS011;12544;46.760;15.942;2023-02-05T18:14:59;9.60;;;4.20;;
24411;SDS011;12544;46.760;15.942;2023-02-05T18:17:25;6.72;;;3.67;;
24411;SDS011;12544;46.760;15.942;2023-02-05T18:19:51;6.80;;;2.80;;
24411;SDS011;12544;46.760;15.942;2023-02-05T18:22:16;4.82;;;2.97;;
24411;SDS011;12544;46.760;15.942;2023-02-05T18:24:42;4.60;;;3.20;;
24411;SDS011;12544;46.760;15.942;2023-02-05T18:27:08;6.78;;;3.95;;
24411;SDS011;12544;46.760;15.942;2023-02-05T18:29:35;4.03;;;3.03;;
24411;SDS011;12544;46.760;15.942;2023-02-05T18:32:01;4.30;;;2.55;;
24411;SDS011;12544;46.760;15.942;2023-02-05T18:34:28;4.03;;;2.63;;
24411;SDS011;12544;46.760;15.942;2023-02-05T18:36:54;5.10;;;2.67;;
24411;SDS011;12544;46.760;15.942;2023-02-05T18:39:19;5.72;;;2.50;;
24411;SDS011;12544;46.760;15.942;2023-02-05T18:41:45;3.95;;;2.70;;
24411;SDS011;12544;46.760;15.942;2023-02-05T18:44:11;4.10;;;2.75;;
24411;SDS011;12544;46.760;15.942;2023-02-05T18:46:36;5.03;;;3.15;;
24411;SDS011;12544;46.760;15.942;2023-02-05T18:49:02;4.85;;;3.60;;
24411;SDS011;12544;46.760;15.942;2023-02-05T18:51:28;7.15;;;4.03;;
24411;SDS011;12544;46.760;15.942;2023-02-05T18:53:54;4.45;;;2.92;;
24411;SDS011;12544;46.760;15.942;2023-02-05T18:56:22;4.38;;;3.45;;
24411;SDS011;12544;46.760;15.942;2023-02-05T18:58:50;4.85;;;2.97;;